createdAt,value
2022-08-27T00:01:42.571Z,101423.13
2022-08-27T00:04:09.528Z,101425.28
2022-08-27T00:06:36.607Z,101425.84
2022-08-27T00:09:06.117Z,101418.03
2022-08-27T00:11:34.709Z,101425.75
2022-08-27T00:14:03.104Z,101421.59
2022-08-27T00:16:30.287Z,101414.66
2022-08-27T00:18:58.627Z,101415.19
2022-08-27T00:21:25.651Z,101408.53
2022-08-27T00:23:52.864Z,101404.66
2022-08-27T00:26:19.965Z,101404.91
2022-08-27T00:28:47.795Z,101407.16
2022-08-27T00:31:14.762Z,101409.41
2022-08-27T00:33:42.035Z,101404.47
2022-08-27T00:36:10.519Z,101406.75
2022-08-27T00:38:38.715Z,101401.94
2022-08-27T00:41:09.738Z,101402.34
2022-08-27T00:44:00.211Z,101404.63
2022-08-27T00:46:45.303Z,101403.13
2022-08-27T00:49:26.964Z,101406.25
2022-08-27T00:52:05.419Z,101408.38
2022-08-27T00:54:33.472Z,101404.19
2022-08-27T00:57:02.502Z,101416.06
2022-08-27T00:59:31.162Z,101415.34
2022-08-27T01:02:17.001Z,101417.34
2022-08-27T01:04:46.906Z,101409.53
2022-08-27T01:07:14.694Z,101411.28
2022-08-27T01:09:43.359Z,101412.13
2022-08-27T01:12:11.307Z,101410.44
2022-08-27T01:14:39.927Z,101405.22
2022-08-27T01:17:10.298Z,101403.47
2022-08-27T01:19:57.045Z,101402.75
2022-08-27T01:23:03.282Z,101402.03
2022-08-27T01:25:31.836Z,101406.75
2022-08-27T01:28:00.933Z,101407.72
2022-08-27T01:30:29.105Z,101399.94
2022-08-27T01:32:56.244Z,101405.41
2022-08-27T01:35:23.762Z,101404.53
2022-08-27T01:37:54.387Z,101398.31
2022-08-27T01:40:24.493Z,101402.19
2022-08-27T01:42:55.628Z,101400.47
2022-08-27T01:45:32.317Z,101401.81
2022-08-27T01:48:01.145Z,101405.81
2022-08-27T01:50:36.088Z,101397.16
2022-08-27T01:53:16.843Z,101399.41
2022-08-27T01:55:47.684Z,101402.50
2022-08-27T01:58:16.807Z,101392.72
2022-08-27T02:00:48.705Z,101403.84
2022-08-27T02:03:23.403Z,101397.66
2022-08-27T02:05:50.882Z,101394.94
2022-08-27T02:08:18.242Z,101398.38
2022-08-27T02:10:48.486Z,101388.34
2022-08-27T02:13:16.937Z,101387.50
2022-08-27T02:15:44.756Z,101386.75
2022-08-27T02:18:13.876Z,101384.28
2022-08-27T02:20:43.830Z,101386.28
2022-08-27T02:23:11.037Z,101387.53
2022-08-27T02:25:38.296Z,101386.78
2022-08-27T02:28:06.295Z,101393.34
2022-08-27T02:30:35.117Z,101386.28
2022-08-27T02:33:04.583Z,101384.81
2022-08-27T02:35:35.147Z,101384.09
2022-08-27T02:38:02.437Z,101379.84
2022-08-27T02:40:29.912Z,101374.81
2022-08-27T02:42:56.841Z,101385.06
2022-08-27T02:45:23.718Z,101370.13
2022-08-27T02:47:50.614Z,101374.06
2022-08-27T02:50:18.044Z,101368.88
2022-08-27T02:52:46.409Z,101374.19
2022-08-27T02:55:17.081Z,101377.53
2022-08-27T02:57:45.225Z,101383.34
2022-08-27T03:00:19.219Z,101381.00
2022-08-27T03:02:46.128Z,101385.19
2022-08-27T03:05:15.126Z,101390.50
2022-08-27T03:07:43.288Z,101378.63
2022-08-27T03:10:14.264Z,101372.31
2022-08-27T03:12:41.513Z,101382.34
2022-08-27T03:15:12.406Z,101376.16
2022-08-27T03:17:58.372Z,101376.53
2022-08-27T03:20:27.144Z,101370.47
2022-08-27T03:22:54.683Z,101372.44
2022-08-27T03:25:22.058Z,101372.72
2022-08-27T03:27:48.985Z,101376.41
2022-08-27T03:30:21.079Z,101375.56
2022-08-27T03:32:48.745Z,101378.16
2022-08-27T03:35:16.152Z,101379.63
2022-08-27T03:37:43.985Z,101378.50
2022-08-27T03:40:12.054Z,101388.28
2022-08-27T03:42:41.647Z,101384.31
2022-08-27T03:45:09.992Z,101386.03
2022-08-27T03:47:37.814Z,101385.06
2022-08-27T03:50:07.963Z,101385.06
2022-08-27T03:52:36.610Z,101388.66
2022-08-27T03:55:07.563Z,101387.78
2022-08-27T03:57:34.634Z,101389.78
2022-08-27T04:00:01.770Z,101384.31
2022-08-27T04:02:28.765Z,101390.63
2022-08-27T04:04:57.766Z,101390.63
2022-08-27T04:07:24.766Z,101384.09
2022-08-27T04:09:51.710Z,101384.81
2022-08-27T04:12:18.609Z,101387.53
2022-08-27T04:14:45.472Z,101387.53
2022-08-27T04:17:12.317Z,101382.09
2022-08-27T04:19:42.147Z,101382.34
2022-08-27T04:22:09.708Z,101377.00
2022-08-27T04:24:37.885Z,101382.59
2022-08-27T04:27:06.089Z,101375.44
2022-08-27T04:29:33.965Z,101379.13
2022-08-27T04:32:01.189Z,101379.38
2022-08-27T04:34:28.044Z,101378.63
2022-08-27T04:36:57.334Z,101392.22
2022-08-27T04:39:26.572Z,101381.34
2022-08-27T04:41:56.361Z,101392.13
2022-08-27T04:44:25.651Z,101392.00
2022-08-27T04:46:57.873Z,101391.03
2022-08-27T04:49:29.201Z,101394.59
2022-08-27T04:51:58.541Z,101393.59
2022-08-27T04:54:32.503Z,101384.31
2022-08-27T04:57:05.558Z,101389.53
2022-08-27T04:59:34.782Z,101393.00
2022-08-27T05:02:04.638Z,101391.84
2022-08-27T05:04:34.467Z,101394.47
2022-08-27T05:07:01.487Z,101397.91
2022-08-27T05:09:28.488Z,101400.53
2022-08-27T05:11:56.163Z,101398.66
2022-08-27T05:14:25.335Z,101395.94
2022-08-27T05:16:52.188Z,101403.13
2022-08-27T05:19:19.104Z,101401.13
2022-08-27T05:21:50.386Z,101404.59
2022-08-27T05:24:18.365Z,101404.34
2022-08-27T05:26:45.718Z,101415.50
2022-08-27T05:29:14.062Z,101416.84
2022-08-27T05:31:42.228Z,101412.75
2022-08-27T05:34:10.324Z,101411.25
2022-08-27T05:36:48.890Z,101408.78
2022-08-27T05:39:17.208Z,101404.53
2022-08-27T05:41:44.143Z,101409.47
2022-08-27T05:44:39.678Z,101410.94
2022-08-27T05:46:58.648Z,101414.13
2022-08-27T05:49:26.003Z,101416.31
2022-08-27T05:51:53.142Z,101420.25
2022-08-27T05:54:20.400Z,101416.31
2022-08-27T05:56:51.953Z,101411.19
2022-08-27T05:59:37.606Z,101411.53
2022-08-27T06:02:06.871Z,101411.00
2022-08-27T06:04:34.798Z,101409.00
2022-08-27T06:07:01.719Z,101413.22
2022-08-27T06:09:29.796Z,101410.06
2022-08-27T06:12:02.421Z,101415.75
2022-08-27T06:14:30.412Z,101409.50
2022-08-27T06:17:00.734Z,101412.41
2022-08-27T06:19:28.304Z,101414.47
2022-08-27T06:22:00.144Z,101413.22
2022-08-27T06:24:30.889Z,101418.13
2022-08-27T06:26:57.747Z,101425.75
2022-08-27T06:29:25.165Z,101422.34
2022-08-27T06:31:55.042Z,101426.13
2022-08-27T06:34:22.511Z,101424.13
2022-08-27T06:36:49.349Z,101421.00
2022-08-27T06:39:17.000Z,101428.75
2022-08-27T06:41:45.345Z,101415.28
2022-08-27T06:44:14.911Z,101426.69
2022-08-27T06:46:43.580Z,101431.44
2022-08-27T06:49:12.627Z,101433.75
2022-08-27T06:51:45.564Z,101438.94
2022-08-27T06:54:15.627Z,101421.69
2022-08-27T06:56:44.540Z,101429.75
2022-08-27T06:59:15.559Z,101425.00
2022-08-27T07:01:51.360Z,101430.78
2022-08-27T07:04:31.970Z,101430.66
2022-08-27T07:06:59.345Z,101426.94
2022-08-27T07:09:26.297Z,101429.81
2022-08-27T07:11:53.230Z,101424.22
2022-08-27T07:14:20.425Z,101429.56
2022-08-27T07:16:48.243Z,101429.56
2022-08-27T07:19:16.364Z,101424.09
2022-08-27T07:21:44.537Z,101442.69
2022-08-27T07:24:12.445Z,101438.38
2022-08-27T07:26:43.420Z,101437.66
2022-08-27T07:29:14.946Z,101439.94
2022-08-27T07:31:42.725Z,101439.94
2022-08-27T07:34:10.046Z,101448.84
2022-08-27T07:36:38.535Z,101444.53
2022-08-27T07:39:08.538Z,101444.00
2022-08-27T07:41:58.700Z,101443.13
2022-08-27T07:44:28.203Z,101443.41
2022-08-27T07:47:01.386Z,101448.16
2022-08-27T07:49:29.918Z,101442.03
2022-08-27T07:51:57.070Z,101439.09
2022-08-27T07:54:25.509Z,101444.66
2022-08-27T07:56:55.086Z,101439.97
2022-08-27T07:59:27.738Z,101444.44
2022-08-27T08:01:56.786Z,101450.47
2022-08-27T08:04:24.636Z,101452.31
2022-08-27T08:06:52.399Z,101450.41
2022-08-27T08:09:22.262Z,101448.38
2022-08-27T08:11:50.865Z,101445.22
2022-08-27T08:14:19.219Z,101452.16
2022-08-27T08:16:46.597Z,101446.66
2022-08-27T08:19:13.705Z,101448.72
2022-08-27T08:21:40.719Z,101447.69
2022-08-27T08:24:07.706Z,101444.09
2022-08-27T08:26:34.576Z,101445.78
2022-08-27T08:29:04.872Z,101457.31
2022-08-27T08:31:31.919Z,101450.59
2022-08-27T08:33:58.886Z,101448.03
2022-08-27T08:36:25.981Z,101457.28
2022-08-27T08:38:54.040Z,101449.34
2022-08-27T08:41:43.726Z,101448.13
2022-08-27T08:44:43.105Z,101453.75
2022-08-27T08:47:28.877Z,101457.66
2022-08-27T08:50:08.651Z,101449.38
2022-08-27T08:52:43.688Z,101454.34
2022-08-27T08:55:33.429Z,101453.53
2022-08-27T08:58:39.512Z,101439.97
2022-08-27T09:01:10.437Z,101442.75
2022-08-27T09:03:44.698Z,101448.28
2022-08-27T09:06:16.702Z,101450.66
2022-08-27T09:08:44.489Z,101455.16
2022-08-27T09:11:39.635Z,101458.66
2022-08-27T09:14:45.191Z,101460.41
2022-08-27T09:17:13.757Z,101466.09
2022-08-27T09:19:41.619Z,101467.00
2022-08-27T09:22:24.592Z,101471.09
2022-08-27T09:25:09.470Z,101465.09
2022-08-27T09:27:42.266Z,101472.13
2022-08-27T09:30:27.446Z,101469.72
2022-08-27T09:33:01.544Z,101464.72
2022-08-27T09:35:42.213Z,101466.97
2022-08-27T09:38:09.997Z,101470.44
2022-08-27T09:40:50.512Z,101461.09
2022-08-27T09:43:17.308Z,101468.34
2022-08-27T09:45:53.208Z,101469.38
2022-08-27T09:48:30.487Z,101466.63
2022-08-27T09:51:08.777Z,101459.06
2022-08-27T09:53:56.062Z,101463.34
2022-08-27T09:56:30.454Z,101452.16
2022-08-27T09:59:02.787Z,101461.44
2022-08-27T10:01:35.139Z,101464.78
2022-08-27T10:04:15.375Z,101459.25
2022-08-27T10:06:48.439Z,101462.31
2022-08-27T10:09:30.831Z,101447.22
2022-08-27T10:12:14.133Z,101455.22
2022-08-27T10:14:49.396Z,101454.56
2022-08-27T10:17:26.883Z,101458.69
2022-08-27T10:20:12.045Z,101450.81
2022-08-27T10:23:11.783Z,101454.59
2022-08-27T10:26:18.381Z,101458.34
2022-08-27T10:29:17.640Z,101447.72
2022-08-27T10:32:05.382Z,101453.53
2022-08-27T10:35:01.162Z,101451.47
2022-08-27T10:37:45.752Z,101450.41
2022-08-27T10:40:25.080Z,101445.91
2022-08-27T10:43:08.773Z,101449.72
2022-08-27T10:46:15.483Z,101457.34
2022-08-27T10:48:57.754Z,101445.94
2022-08-27T10:51:32.399Z,101441.06
2022-08-27T10:54:43.702Z,101451.41
2022-08-27T10:57:53.165Z,101454.41
2022-08-27T11:00:23.842Z,101445.28
2022-08-27T11:03:01.500Z,101436.16
2022-08-27T11:05:41.110Z,101441.16
2022-08-27T11:08:43.852Z,101429.69
2022-08-27T11:14:37.548Z,101443.75
2022-08-27T11:17:21.810Z,101441.03
2022-08-27T11:20:13.997Z,101435.22
2022-08-27T11:22:44.654Z,101443.50
2022-08-27T11:25:50.887Z,101441.63
2022-08-27T11:28:38.786Z,101435.56
2022-08-27T11:31:34.624Z,101429.69
2022-08-27T11:34:36.713Z,101428.31
2022-08-27T11:37:30.853Z,101423.91
2022-08-27T11:40:38.392Z,101428.16
2022-08-27T11:43:11.096Z,101421.19
2022-08-27T11:45:57.406Z,101419.97
2022-08-27T11:48:31.568Z,101428.09
2022-08-27T11:51:07.057Z,101428.13
2022-08-27T11:53:42.790Z,101429.88
2022-08-27T11:56:38.729Z,101429.53
2022-08-27T11:59:21.794Z,101432.28
2022-08-27T12:01:54.093Z,101434.38
2022-08-27T12:04:36.403Z,101428.84
2022-08-27T12:07:11.848Z,101424.34
2022-08-27T12:09:56.883Z,101428.53
2022-08-27T12:12:35.667Z,101435.47
2022-08-27T12:15:33.700Z,101434.44
2022-08-27T12:18:55.280Z,101430.66
2022-08-27T12:21:34.982Z,101422.19
2022-08-27T12:24:26.129Z,101420.78
2022-08-27T12:27:01.807Z,101416.25
2022-08-27T12:30:04.565Z,101423.75
2022-08-27T12:32:44.944Z,101423.13
2022-08-27T12:35:29.113Z,101419.25
2022-08-27T12:38:50.633Z,101418.53
2022-08-27T12:41:44.759Z,101419.75
2022-08-27T12:44:32.983Z,101419.25
2022-08-27T12:47:04.441Z,101420.38
2022-08-27T12:49:55.672Z,101418.88
2022-08-27T12:52:59.771Z,101413.19
2022-08-27T12:56:02.929Z,101420.38
2022-08-27T12:58:56.562Z,101408.22
2022-08-27T13:01:45.041Z,101407.13
2022-08-27T13:04:31.307Z,101413.00
2022-08-27T13:06:58.245Z,101410.31
2022-08-27T13:09:38.982Z,101420.84
2022-08-27T13:12:17.486Z,101410.31
2022-08-27T13:14:44.502Z,101409.59
2022-08-27T13:17:20.056Z,101417.03
2022-08-27T13:20:01.094Z,101407.72
2022-08-27T13:22:39.422Z,101407.25
2022-08-27T13:25:24.722Z,101409.31
2022-08-27T13:28:13.362Z,101409.06
2022-08-27T13:30:47.364Z,101405.38
2022-08-27T13:33:27.808Z,101408.38
2022-08-27T13:35:57.615Z,101407.72
2022-08-27T13:38:28.368Z,101404.97
2022-08-27T13:41:17.719Z,101402.38
2022-08-27T13:43:48.336Z,101406.69
2022-08-27T13:46:21.500Z,101399.25
2022-08-27T13:48:52.957Z,101405.09
2022-08-27T13:51:31.828Z,101409.56
2022-08-27T13:54:13.470Z,101409.72
2022-08-27T13:56:47.942Z,101409.16
2022-08-27T13:59:19.093Z,101408.47
2022-08-27T14:02:09.595Z,101406.09
2022-08-27T14:05:11.279Z,101401.28
2022-08-27T14:07:47.553Z,101397.50
2022-08-27T14:10:39.651Z,101403.69
2022-08-27T14:13:13.282Z,101391.50
2022-08-27T14:15:52.516Z,101396.00
2022-08-27T14:21:25.159Z,101393.75
2022-08-27T14:23:52.486Z,101398.59
2022-08-27T14:26:20.370Z,101395.16
2022-08-27T14:28:47.523Z,101392.00
2022-08-27T14:31:14.989Z,101404.50
2022-08-27T14:33:43.324Z,101397.75
2022-08-27T14:36:11.176Z,101401.19
2022-08-27T14:38:43.967Z,101401.34
2022-08-27T14:41:11.362Z,101400.28
2022-08-27T14:43:38.276Z,101399.75
2022-08-27T14:46:11.230Z,101401.75
2022-08-27T14:48:43.379Z,101400.34
2022-08-27T14:51:25.477Z,101398.31
2022-08-27T14:53:53.803Z,101402.53
2022-08-27T14:56:22.513Z,101402.78
2022-08-27T14:58:50.705Z,101409.81
2022-08-27T15:01:18.513Z,101410.22
2022-08-27T15:03:49.438Z,101411.97
2022-08-27T15:06:19.115Z,101406.81
2022-08-27T15:08:50.668Z,101411.66
2022-08-27T15:11:24.124Z,101418.06
2022-08-27T15:13:53.322Z,101420.47
2022-08-27T15:16:38.540Z,101415.81
2022-08-27T15:19:08.408Z,101414.63
2022-08-27T15:21:38.961Z,101397.97
2022-08-27T15:24:24.917Z,101406.59
2022-08-27T15:26:57.727Z,101407.66
2022-08-27T15:29:26.443Z,101411.66
2022-08-27T15:31:54.312Z,101410.47
2022-08-27T15:34:21.583Z,101414.63
2022-08-27T15:36:48.470Z,101414.97
2022-08-27T15:39:15.302Z,101418.59
2022-08-27T15:42:05.027Z,101422.19
2022-08-27T15:44:30.668Z,101420.31
2022-08-27T15:46:58.121Z,101420.31
2022-08-27T15:49:25.021Z,101415.66
2022-08-27T15:51:52.170Z,101417.41
2022-08-27T15:54:19.290Z,101423.44
2022-08-27T15:56:46.169Z,101416.00
2022-08-27T15:59:13.228Z,101415.00
2022-08-27T16:01:40.344Z,101415.00
2022-08-27T16:04:07.332Z,101419.09
2022-08-27T16:06:35.017Z,101417.06
2022-08-27T16:09:03.421Z,101420.00
2022-08-27T16:11:30.324Z,101421.22
2022-08-27T16:13:57.162Z,101418.44
2022-08-27T16:16:29.403Z,101419.31
2022-08-27T16:18:59.159Z,101419.13
2022-08-27T16:21:26.444Z,101412.94
2022-08-27T16:23:53.374Z,101426.00
2022-08-27T16:26:20.440Z,101415.16
2022-08-27T16:28:47.342Z,101420.84
2022-08-27T16:31:15.144Z,101416.88
2022-08-27T16:33:43.229Z,101428.06
2022-08-27T16:36:10.961Z,101419.31
2022-08-27T16:38:38.342Z,101415.66
2022-08-27T16:41:06.569Z,101409.63
2022-08-27T16:43:33.541Z,101402.22
2022-08-27T16:46:02.200Z,101407.34
2022-08-27T16:48:48.400Z,101409.41
2022-08-27T16:51:30.487Z,101405.13
2022-08-27T16:54:01.461Z,101404.06
2022-08-27T16:56:28.754Z,101404.06
2022-08-27T16:58:55.918Z,101409.41
2022-08-27T17:01:24.190Z,101409.72
2022-08-27T17:04:18.217Z,101399.06
2022-08-27T17:06:42.322Z,101403.19
2022-08-27T17:09:10.406Z,101395.25
2022-08-27T17:11:42.678Z,101397.69
2022-08-27T17:14:12.043Z,101399.91
2022-08-27T17:16:41.311Z,101400.22
2022-08-27T17:19:09.728Z,101399.69
2022-08-27T17:21:37.658Z,101398.31
2022-08-27T17:24:05.553Z,101404.13
2022-08-27T17:26:39.891Z,101397.25
2022-08-27T17:29:07.048Z,101397.56
2022-08-27T17:31:38.343Z,101405.97
2022-08-27T17:34:12.110Z,101399.25
2022-08-27T17:36:38.996Z,101404.06
2022-08-27T17:39:05.866Z,101408.16
2022-08-27T17:41:44.227Z,101407.47
2022-08-27T17:44:36.487Z,101404.00
2022-08-27T17:47:07.932Z,101408.81
2022-08-27T17:49:35.691Z,101410.81
2022-08-27T17:52:11.029Z,101406.69
2022-08-27T17:54:42.953Z,101412.84
2022-08-27T17:57:25.200Z,101407.66
2022-08-27T17:59:54.682Z,101411.09
2022-08-27T18:02:30.250Z,101407.97
2022-08-27T18:04:57.424Z,101407.72
2022-08-27T18:07:24.351Z,101408.22
2022-08-27T18:09:51.782Z,101415.06
2022-08-27T18:12:25.478Z,101414.53
2022-08-27T18:15:06.373Z,101417.75
2022-08-27T18:17:35.226Z,101423.56
2022-08-27T18:20:05.981Z,101422.16
2022-08-27T18:22:38.767Z,101429.00
2022-08-27T18:25:09.448Z,101428.91
2022-08-27T18:27:39.992Z,101424.91
2022-08-27T18:30:08.987Z,101436.38
2022-08-27T18:32:35.825Z,101430.16
2022-08-27T18:35:13.380Z,101432.22
2022-08-27T18:37:40.292Z,101438.31
2022-08-27T18:40:09.503Z,101442.41
2022-08-27T18:42:38.271Z,101438.25
2022-08-27T18:45:13.782Z,101442.31
2022-08-27T18:47:41.869Z,101445.38
2022-08-27T18:50:17.492Z,101451.16
2022-08-27T18:52:47.704Z,101445.28
2022-08-27T18:55:19.370Z,101453.09
2022-08-27T18:57:46.398Z,101462.66
2022-08-27T19:00:18.866Z,101468.16
2022-08-27T19:02:52.054Z,101457.31
2022-08-27T19:05:26.705Z,101465.56
2022-08-27T19:07:55.440Z,101466.44
2022-08-27T19:10:23.161Z,101472.94
2022-08-27T19:12:49.991Z,101469.47
2022-08-27T19:15:17.723Z,101462.25
2022-08-27T19:17:57.606Z,101470.81
2022-08-27T19:20:24.491Z,101469.22
2022-08-27T19:22:51.361Z,101477.63
2022-08-27T19:25:18.708Z,101484.25
2022-08-27T19:27:47.328Z,101477.94
2022-08-27T19:30:16.889Z,101487.47
2022-08-27T19:32:44.972Z,101489.47
2022-08-27T19:35:12.168Z,101489.47
2022-08-27T19:37:52.641Z,101487.91
2022-08-27T19:40:22.092Z,101503.50
2022-08-27T19:42:50.506Z,101498.03
2022-08-27T19:45:23.083Z,101511.03
2022-08-27T19:47:52.561Z,101504.84
2022-08-27T19:50:20.902Z,101503.09
2022-08-27T19:52:48.365Z,101512.66
2022-08-27T19:55:15.800Z,101514.13
2022-08-27T19:57:44.936Z,101513.41
2022-08-27T20:00:15.933Z,101518.44
2022-08-27T20:02:42.855Z,101519.91
2022-08-27T20:05:18.734Z,101512.97
2022-08-27T20:07:52.611Z,101503.03
2022-08-27T20:10:23.655Z,101510.69
2022-08-27T20:12:59.024Z,101509.28
2022-08-27T20:15:26.404Z,101517.63
2022-08-27T20:17:54.299Z,101519.66
2022-08-27T20:20:24.547Z,101517.94
2022-08-27T20:22:52.441Z,101517.06
2022-08-27T20:25:20.107Z,101523.41
2022-08-27T20:27:47.717Z,101518.06
2022-08-27T20:30:17.117Z,101530.91
2022-08-27T20:32:44.276Z,101520.09
2022-08-27T20:35:11.911Z,101525.72
2022-08-27T20:37:42.259Z,101529.78
2022-08-27T20:40:19.664Z,101533.81
2022-08-27T20:42:46.602Z,101537.88
2022-08-27T20:45:15.018Z,101539.31
2022-08-27T20:47:44.454Z,101551.69
2022-08-27T20:50:14.481Z,101556.78
2022-08-27T20:52:42.238Z,101550.59
2022-08-27T20:55:09.902Z,101552.56
2022-08-27T20:57:36.785Z,101546.84
2022-08-27T21:00:21.246Z,101560.94
2022-08-27T21:02:47.987Z,101556.06
2022-08-27T21:05:18.207Z,101550.00
2022-08-27T21:07:48.529Z,101564.84
2022-08-27T21:10:16.532Z,101565.84
2022-08-27T21:12:44.778Z,101551.44
2022-08-27T21:15:13.419Z,101562.63
2022-08-27T21:17:40.623Z,101556.72
2022-08-27T21:20:11.261Z,101562.63
2022-08-27T21:22:40.567Z,101565.50
2022-08-27T21:25:09.744Z,101564.06
2022-08-27T21:27:37.326Z,101564.34
2022-08-27T21:30:05.943Z,101560.88
2022-08-27T21:32:34.080Z,101563.63
2022-08-27T21:35:17.286Z,101572.09
2022-08-27T21:37:44.193Z,101571.66
2022-08-27T21:40:11.632Z,101572.09
2022-08-27T21:42:38.552Z,101577.25
2022-08-27T21:45:06.697Z,101575.81
2022-08-27T21:47:33.792Z,101572.91
2022-08-27T21:50:00.715Z,101583.66
2022-08-27T21:52:27.740Z,101580.63
2022-08-27T21:54:55.105Z,101582.31
2022-08-27T21:57:22.184Z,101581.28
2022-08-27T21:59:51.421Z,101580.22
2022-08-27T22:02:39.425Z,101585.47
2022-08-27T22:05:08.068Z,101586.28
2022-08-27T22:07:35.249Z,101591.69
2022-08-27T22:10:02.619Z,101586.16
2022-08-27T22:12:29.534Z,101580.50
2022-08-27T22:14:56.389Z,101577.56
2022-08-27T22:17:23.375Z,101588.28
2022-08-27T22:19:50.282Z,101580.63
2022-08-27T22:22:17.177Z,101585.47
2022-08-27T22:24:44.501Z,101588.88
2022-08-27T22:27:11.502Z,101585.66
2022-08-27T22:29:38.368Z,101592.50
2022-08-27T22:32:07.576Z,101587.59
2022-08-27T22:34:35.409Z,101587.84
2022-08-27T22:37:03.856Z,101591.19
2022-08-27T22:39:31.294Z,101597.91
2022-08-27T22:41:58.491Z,101593.66
2022-08-27T22:44:29.299Z,101597.41
2022-08-27T22:46:57.944Z,101599.53
2022-08-27T22:49:25.044Z,101589.88
2022-08-27T22:51:51.899Z,101592.00
2022-08-27T22:54:19.178Z,101599.44
2022-08-27T22:56:46.146Z,101605.88
2022-08-27T22:59:13.013Z,101596.94
2022-08-27T23:01:40.585Z,101600.66
2022-08-27T23:04:07.810Z,101603.66
2022-08-27T23:06:35.293Z,101595.72
2022-08-27T23:09:02.257Z,101594.25
2022-08-27T23:11:31.692Z,101603.66
2022-08-27T23:13:59.653Z,101598.47
2022-08-27T23:16:27.954Z,101600.19
2022-08-27T23:18:55.089Z,101596.72
2022-08-27T23:21:21.954Z,101595.00
2022-08-27T23:23:49.533Z,101603.31
2022-08-27T23:26:34.718Z,101594.50
2022-08-27T23:29:01.753Z,101601.22
2022-08-27T23:31:28.700Z,101608.63
2022-08-27T23:33:56.053Z,101604.31
2022-08-27T23:36:23.775Z,101607.16
2022-08-27T23:38:50.655Z,101597.38
2022-08-27T23:41:17.623Z,101602.19
2022-08-27T23:43:45.543Z,101606.28
2022-08-27T23:46:13.297Z,101602.94
2022-08-27T23:48:40.647Z,101606.66
2022-08-27T23:51:09.559Z,101604.19
2022-08-27T23:53:39.407Z,101607.16
2022-08-27T23:56:06.505Z,101608.88
2022-08-27T23:58:33.899Z,101611.75
